Terminal Aerodrome Forecast
Issued by NWS

Home | Current Version | Previous Version | Text Only | Print | Product List | Glossary On
Versions: 1 2 3 4 5 6 7 8 9 10 11 12 13
709
FTUS41 KBTV 220539
TAFMSS
TAF
KMSS 220539Z 2206/2306 22005KT P6SM FEW250
     FM221500 21010G20KT P6SM VCSH SCT025 BKN060
     FM221800 22014G25KT P6SM SHRA VCTS SCT030 BKN045CB
     FM222200 22014G24KT P6SM SHRA VCTS SCT020 OVC030CB
     FM230300 23013KT P6SM VCSH SCT010 BKN020=

USA.gov is the U.S. government's official web portal to all federal, state and local government web resources and services.